Time;durP1;ratioP1;P1;durP2;ratioP2;P2;SDS_P1;SDS_P2;PMS_P1;PMS_P2;Temp;Humidity;BMP_temperature;BMP_pressure;BME280_temperature;BME280_humidity;BME280_pressure;Samples;Min_cycle;Max_cycle;Signal;HPM_P1;HPM_P2
2024/01/08 00:01:59;;;;;;;0.40;0.40;;;;;;;3.08;100.00;99425.88;5024232;28;20029;-77
2024/01/08 00:04:24;;;;;;;0.40;0.40;;;;;;;3.03;100.00;99407.69;5026280;28;20370;-77
2024/01/08 00:06:51;;;;;;;0.30;0.30;;;;;;;2.99;100.00;99413.66;5016138;28;20504;-75
2024/01/08 00:09:17;;;;;;;0.38;0.38;;;;;;;2.25;100.00;99339.19;5019150;28;20054;-77
2024/01/08 00:11:42;;;;;;;0.30;0.30;;;;;;;2.97;100.00;99438.69;5020536;28;20092;-76
2024/01/08 00:14:08;;;;;;;0.30;0.30;;;;;;;2.97;100.00;99438.69;5022936;28;20056;-78
2024/01/08 00:16:33;;;;;;;0.30;0.30;;;;;;;2.36;100.00;99326.41;5016763;28;20041;-76
2024/01/08 00:19:00;;;;;;;0.30;0.30;;;;;;;2.82;100.00;99421.19;5022140;28;20037;-75
2024/01/08 00:21:27;;;;;;;0.20;0.20;;;;;;;3.07;100.00;99443.16;5024253;28;20057;-74
2024/01/08 00:23:52;;;;;;;0.30;0.30;;;;;;;2.30;100.00;99330.66;5013019;28;20115;-77
2024/01/08 00:26:18;;;;;;;1.20;1.20;;;;;;;2.23;100.00;99335.72;5021036;28;20124;-76
2024/01/08 00:28:45;;;;;;;0.47;0.47;;;;;;;2.36;100.00;99360.06;5020561;28;20777;-76
2024/01/08 00:31:12;;;;;;;0.40;0.40;;;;;;;2.94;100.00;99459.38;5022356;28;20497;-76
2024/01/08 00:33:37;;;;;;;0.50;0.40;;;;;;;2.29;100.00;99375.50;5022126;28;20077;-77
2024/01/08 00:36:03;;;;;;;0.30;0.30;;;;;;;2.54;100.00;99456.16;5020233;28;20080;-75
2024/01/08 00:38:28;;;;;;;0.30;0.30;;;;;;;2.16;100.00;99383.91;5023474;28;20049;-76
2024/01/08 00:40:54;;;;;;;0.43;0.43;;;;;;;2.85;100.00;99483.41;5019527;28;20132;-76
2024/01/08 00:43:19;;;;;;;0.30;0.30;;;;;;;2.29;100.00;99377.19;5018608;28;20848;-75
2024/01/08 00:45:45;;;;;;;0.30;0.30;;;;;;;2.45;100.00;99472.38;5005806;28;20154;-75
2024/01/08 00:48:10;;;;;;;0.30;0.30;;;;;;;1.65;100.00;99318.34;5031876;28;20049;-74
2024/01/08 00:50:36;;;;;;;0.30;0.30;;;;;;;2.74;100.00;99497.94;5024248;28;20042;-77
2024/01/08 00:53:02;;;;;;;0.30;0.30;;;;;;;1.65;100.00;99313.16;5018668;28;20037;-75
2024/01/08 00:55:28;;;;;;;0.30;0.30;;;;;;;2.65;100.00;99505.53;5023484;28;20042;-76
2024/01/08 00:57:54;;;;;;;0.40;0.40;;;;;;;2.30;100.00;99460.06;5025266;28;20037;-76
2024/01/08 01:00:20;;;;;;;0.32;0.32;;;;;;;2.66;100.00;99502.09;5020718;28;20085;-78
2024/01/08 01:02:45;;;;;;;0.30;0.30;;;;;;;2.20;100.00;99429.69;5021567;28;20050;-77
2024/01/08 01:05:11;;;;;;;0.40;0.40;;;;;;;2.54;100.00;99479.44;5015133;28;20054;-76
2024/01/08 01:07:36;;;;;;;0.30;0.30;;;;;;;2.22;100.00;99490.09;5018194;28;20034;-75
2024/01/08 01:10:02;;;;;;;0.30;0.30;;;;;;;2.51;100.00;99523.44;5024220;28;20509;-76
2024/01/08 01:12:27;;;;;;;0.30;0.30;;;;;;;2.07;100.00;99467.41;5015006;28;20049;-75
2024/01/08 01:14:53;;;;;;;0.40;0.40;;;;;;;1.90;100.00;99428.28;5025274;28;20049;-76
2024/01/08 01:17:19;;;;;;;0.20;0.20;;;;;;;2.19;100.00;99508.16;5009299;28;20057;-76
2024/01/08 01:19:44;;;;;;;0.40;0.40;;;;;;;2.01;100.00;99512.97;5030253;28;20760;-76
2024/01/08 01:22:10;;;;;;;0.30;0.30;;;;;;;1.59;100.00;99482.81;5022691;28;21000;-75
2024/01/08 01:24:36;;;;;;;0.30;0.30;;;;;;;1.40;100.00;99455.69;5028531;28;20099;-76
2024/01/08 01:27:01;;;;;;;0.30;0.30;;;;;;;1.21;100.00;99438.94;5027636;28;20050;-76
2024/01/08 01:29:27;;;;;;;0.32;0.32;;;;;;;2.00;100.00;99522.44;5032239;28;20115;-76
2024/01/08 01:31:52;;;;;;;0.30;0.30;;;;;;;1.16;100.00;99435.38;5029794;28;20037;-76
2024/01/08 01:34:18;;;;;;;0.30;0.30;;;;;;;2.11;100.00;99554.59;5029728;28;20064;-76
2024/01/08 01:36:45;;;;;;;0.30;0.30;;;;;;;1.74;100.00;99483.13;5028188;28;20049;-75
2024/01/08 01:39:10;;;;;;;0.38;0.38;;;;;;;1.79;100.00;99485.81;5015766;28;20592;-75
2024/01/08 01:41:37;;;;;;;0.38;0.38;;;;;;;2.15;100.00;99539.97;5024409;28;20156;-76
2024/01/08 01:44:03;;;;;;;0.30;0.30;;;;;;;1.63;100.00;99469.97;5028989;28;20409;-76
2024/01/08 01:46:50;;;;;;;0.30;0.30;;;;;;;2.29;100.00;99571.31;5015274;28;20343;-76
2024/01/08 01:49:19;;;;;;;0.20;0.20;;;;;;;1.54;100.00;99435.31;5027201;28;20092;-77
2024/01/08 01:51:46;;;;;;;0.30;0.30;;;;;;;1.99;100.00;99518.13;5025467;28;20079;-77
2024/01/08 01:54:15;;;;;;;0.50;0.50;;;;;;;1.13;100.00;99369.03;5023878;28;20092;-78
2024/01/08 01:56:43;;;;;;;0.40;0.40;;;;;;;1.51;100.00;99467.16;5024246;28;20133;-74
2024/01/08 01:59:10;;;;;;;0.35;0.35;;;;;;;1.99;100.00;99572.47;5027736;28;20524;-76
2024/01/08 02:01:36;;;;;;;0.30;0.30;;;;;;;2.06;100.00;99576.03;5026399;28;20041;-76
2024/01/08 02:04:03;;;;;;;0.40;0.40;;;;;;;2.17;100.00;99577.13;5030568;28;20064;-75
2024/01/08 02:06:29;;;;;;;0.40;0.40;;;;;;;2.06;100.00;99556.22;5029881;28;20049;-75
2024/01/08 02:08:55;;;;;;;0.30;0.30;;;;;;;2.21;100.00;99572.91;5021788;28;20045;-76
2024/01/08 02:11:22;;;;;;;0.30;0.30;;;;;;;1.38;100.00;99471.19;5026896;28;20056;-77
2024/01/08 02:13:51;;;;;;;0.40;0.40;;;;;;;2.02;100.00;99563.88;5024374;28;20075;-76
2024/01/08 02:16:18;;;;;;;0.30;0.30;;;;;;;0.88;100.00;99356.44;5034525;28;20064;-76
2024/01/08 02:18:43;;;;;;;0.30;0.30;;;;;;;2.09;100.00;99589.03;5028818;28;20048;-77
2024/01/08 02:21:09;;;;;;;0.30;0.30;;;;;;;1.42;100.00;99465.22;5031300;28;20186;-77
2024/01/08 02:23:35;;;;;;;0.20;0.20;;;;;;;1.53;100.00;99469.78;5027828;28;20514;-76
2024/01/08 02:26:01;;;;;;;0.28;0.28;;;;;;;2.05;100.00;99585.50;5028785;28;20060;-76
2024/01/08 02:28:26;;;;;;;0.30;0.30;;;;;;;2.02;100.00;99582.00;5029264;28;20041;-76
2024/01/08 02:30:52;;;;;;;0.60;0.60;;;;;;;1.56;100.00;99503.44;5020503;28;20049;-77
2024/01/08 02:33:17;;;;;;;0.30;0.30;;;;;;;2.17;100.00;99581.44;5019084;28;20057;-75
2024/01/08 02:35:42;;;;;;;1.02;1.02;;;;;;;0.95;100.00;99444.38;5024411;28;20049;-75
2024/01/08 02:38:08;;;;;;;0.35;0.35;;;;;;;1.80;100.00;99586.72;5028697;28;20487;-75
2024/01/08 02:40:34;;;;;;;0.30;0.30;;;;;;;1.22;100.00;99487.19;5034059;28;20038;-76
2024/01/08 02:43:00;;;;;;;0.38;0.38;;;;;;;2.06;100.00;99604.47;5028784;28;20453;-76
2024/01/08 02:45:25;;;;;;;0.30;0.30;;;;;;;1.81;100.00;99572.06;5006010;28;20143;-76
2024/01/08 02:47:51;;;;;;;0.30;0.30;;;;;;;1.05;100.00;99500.59;5028573;28;20041;-75
2024/01/08 02:50:16;;;;;;;0.30;0.30;;;;;;;1.29;100.00;99493.34;5021997;28;20386;-76
2024/01/08 02:52:44;;;;;;;0.30;0.30;;;;;;;1.15;100.00;99470.69;5025303;28;20481;-75
2024/01/08 02:55:10;;;;;;;0.30;0.30;;;;;;;1.79;100.00;99573.75;5025616;28;20060;-76
2024/01/08 02:57:36;;;;;;;0.30;0.30;;;;;;;1.78;100.00;99582.31;5023208;28;20050;-76
2024/01/08 03:00:04;;;;;;;0.38;0.38;;;;;;;1.69;100.00;99589.06;5017197;28;20068;-75
2024/01/08 03:02:30;;;;;;;0.32;0.32;;;;;;;1.82;100.00;99592.78;5025717;28;20108;-77
2024/01/08 03:04:55;;;;;;;0.95;0.68;;;;;;;1.81;100.00;99564.31;5006327;28;20084;-76
2024/01/08 03:07:21;;;;;;;0.30;0.30;;;;;;;1.95;100.00;99591.34;5021822;28;20137;-75
2024/01/08 03:09:47;;;;;;;0.30;0.30;;;;;;;1.67;100.00;99593.31;5019984;28;20060;-76
2024/01/08 03:12:13;;;;;;;0.35;0.35;;;;;;;1.11;100.00;99455.94;5019452;28;20049;-76
2024/01/08 03:14:39;;;;;;;0.35;0.35;;;;;;;1.78;100.00;99570.28;5022196;28;20045;-76
2024/01/08 03:17:05;;;;;;;0.30;0.30;;;;;;;2.00;100.00;99600.06;5028503;28;20049;-77
2024/01/08 03:19:30;;;;;;;0.38;0.38;;;;;;;1.83;100.00;99581.59;5023240;28;20524;-75
2024/01/08 03:21:56;;;;;;;0.40;0.40;;;;;;;1.36;100.00;99516.81;5025220;28;20151;-76
2024/01/08 03:24:22;;;;;;;0.40;0.40;;;;;;;1.61;100.00;99594.88;5018341;28;20124;-76
2024/01/08 03:26:47;;;;;;;0.30;0.30;;;;;;;1.47;100.00;99555.78;5022701;28;20478;-77
2024/01/08 03:29:13;;;;;;;0.60;0.60;;;;;;;1.63;100.00;99549.25;5025491;28;20057;-75
2024/01/08 03:31:42;;;;;;;0.30;0.30;;;;;;;1.58;100.00;99606.03;5026665;28;20061;-76
2024/01/08 03:34:08;;;;;;;0.30;0.30;;;;;;;0.99;100.00;99507.34;5019028;28;20084;-76
2024/01/08 03:36:33;;;;;;;0.40;0.40;;;;;;;1.90;100.00;99624.00;5022273;28;20145;-76
2024/01/08 03:38:59;;;;;;;0.40;0.40;;;;;;;1.33;100.00;99534.81;5021959;28;20084;-76
2024/01/08 03:41:25;;;;;;;0.40;0.40;;;;;;;1.83;100.00;99616.94;5030110;28;20052;-76
2024/01/08 03:43:51;;;;;;;0.30;0.30;;;;;;;1.13;100.00;99500.78;5024402;28;20041;-76
2024/01/08 03:46:16;;;;;;;0.30;0.30;;;;;;;1.64;100.00;99607.91;5025182;28;20025;-75
2024/01/08 03:48:42;;;;;;;0.30;0.30;;;;;;;1.35;100.00;99542.59;5022670;28;20695;-77
2024/01/08 03:51:07;;;;;;;0.30;0.30;;;;;;;0.58;100.00;99430.59;5016778;28;20073;-78
2024/01/08 03:53:33;;;;;;;0.30;0.30;;;;;;;1.00;100.00;99491.84;5027185;28;20056;-77
2024/01/08 03:55:58;;;;;;;0.20;0.20;;;;;;;1.68;100.00;99633.84;5034609;28;20029;-76
2024/01/08 03:58:25;;;;;;;0.30;0.30;;;;;;;1.01;100.00;99529.78;5024566;28;20041;-76
2024/01/08 04:00:53;;;;;;;0.30;0.30;;;;;;;0.62;100.00;99471.16;5025303;28;20086;-76
2024/01/08 04:03:19;;;;;;;0.30;0.30;;;;;;;0.88;100.00;99496.72;5030353;28;20049;-76
2024/01/08 04:05:45;;;;;;;0.30;0.30;;;;;;;1.53;100.00;99627.47;5027283;28;20075;-76
2024/01/08 04:08:11;;;;;;;0.30;0.30;;;;;;;0.90;100.00;99513.16;5022509;28;20605;-76
2024/01/08 04:10:37;;;;;;;0.20;0.20;;;;;;;1.08;100.00;99546.31;5018451;28;21227;-76
2024/01/08 04:13:05;;;;;;;0.30;0.30;;;;;;;1.14;100.00;99559.34;5030021;28;20053;-75
2024/01/08 04:15:31;;;;;;;0.30;0.30;;;;;;;1.01;100.00;99532.34;5019048;28;20076;-76
2024/01/08 04:17:57;;;;;;;0.30;0.30;;;;;;;1.18;100.00;99539.63;5022189;28;20044;-76
2024/01/08 04:20:22;;;;;;;0.30;0.30;;;;;;;1.47;100.00;99589.41;5026306;28;20721;-77
2024/01/08 04:22:51;;;;;;;0.50;0.50;;;;;;;1.17;100.00;99530.13;5030855;28;20045;-77
2024/01/08 04:25:17;;;;;;;1.05;0.95;;;;;;;1.54;100.00;99613.69;5029450;28;20743;-76
2024/01/08 04:27:43;;;;;;;0.47;0.47;;;;;;;1.31;100.00;99567.53;5024283;28;20072;-77
2024/01/08 04:30:09;;;;;;;1.52;1.48;;;;;;;1.25;100.00;99562.19;5026772;28;20044;-78
2024/01/08 04:32:35;;;;;;;0.30;0.30;;;;;;;1.56;100.00;99636.16;5021687;28;20065;-77
2024/01/08 04:35:01;;;;;;;0.40;0.40;;;;;;;1.02;100.00;99549.59;5027914;28;20055;-76
2024/01/08 04:37:26;;;;;;;0.30;0.30;;;;;;;0.72;100.00;99523.00;5027122;28;20034;-77
2024/01/08 04:39:52;;;;;;;0.40;0.40;;;;;;;1.61;100.00;99634.53;5028551;28;20451;-76
2024/01/08 04:42:18;;;;;;;0.40;0.40;;;;;;;0.70;100.00;99522.97;5014524;28;20046;-77
2024/01/08 04:44:43;;;;;;;0.30;0.30;;;;;;;1.04;100.00;99554.81;5026996;28;20072;-77
2024/01/08 04:47:09;;;;;;;0.55;0.50;;;;;;;0.71;100.00;99541.94;5023449;28;20053;-76
2024/01/08 04:49:35;;;;;;;0.35;0.35;;;;;;;1.18;100.00;99617.16;5031344;28;20044;-76
2024/01/08 04:52:00;;;;;;;0.32;0.32;;;;;;;0.79;100.00;99528.38;5030431;28;20061;-76
2024/01/08 04:54:26;;;;;;;0.35;0.35;;;;;;;0.72;100.00;99534.22;5021300;28;20053;-77
2024/01/08 04:56:51;;;;;;;0.40;0.40;;;;;;;0.80;100.00;99547.34;5031378;28;20500;-76
2024/01/08 04:59:19;;;;;;;0.40;0.40;;;;;;;0.75;100.00;99582.47;5031982;28;20049;-77
2024/01/08 05:01:45;;;;;;;0.30;0.30;;;;;;;1.50;100.00;99676.50;5032594;28;20069;-76
2024/01/08 05:04:10;;;;;;;0.40;0.40;;;;;;;0.84;100.00;99552.63;5024727;28;20064;-75
2024/01/08 05:06:36;;;;;;;0.30;0.30;;;;;;;1.40;100.00;99678.84;5021431;28;20054;-76
2024/01/08 05:09:02;;;;;;;0.30;0.30;;;;;;;1.10;100.00;99641.91;5020930;28;20057;-75
2024/01/08 05:11:28;;;;;;;0.30;0.30;;;;;;;0.52;100.00;99518.22;5022608;28;20053;-77
2024/01/08 05:13:54;;;;;;;0.30;0.30;;;;;;;1.31;100.00;99672.56;5024317;28;20095;-78
2024/01/08 05:16:19;;;;;;;0.30;0.30;;;;;;;1.28;100.00;99644.94;5022199;28;20038;-77
2024/01/08 05:18:45;;;;;;;0.30;0.30;;;;;;;1.43;100.00;99689.28;5027394;28;20073;-78
2024/01/08 05:21:13;;;;;;;0.40;0.40;;;;;;;1.32;100.00;99675.22;5018999;28;20057;-77
2024/01/08 05:23:39;;;;;;;0.43;0.43;;;;;;;0.78;100.00;99592.91;5016080;28;20037;-77
2024/01/08 05:26:06;;;;;;;0.50;0.50;;;;;;;1.01;100.00;99637.41;5024877;28;20058;-77
2024/01/08 05:28:32;;;;;;;0.40;0.40;;;;;;;1.19;100.00;99679.19;5033613;28;20033;-76
2024/01/08 05:30:58;;;;;;;0.40;0.40;;;;;;;1.21;100.00;99666.31;5009739;28;20492;-77
2024/01/08 05:33:25;;;;;;;1.48;1.45;;;;;;;1.46;100.00;99691.94;5030617;28;20056;-78
2024/01/08 05:35:51;;;;;;;0.30;0.30;;;;;;;0.80;100.00;99602.44;5002948;28;20756;-77
2024/01/08 05:38:17;;;;;;;0.30;0.30;;;;;;;1.57;100.00;99723.22;5024117;28;20042;-77
2024/01/08 05:40:42;;;;;;;2.17;2.08;;;;;;;0.99;100.00;99645.09;5023215;28;20195;-76
2024/01/08 05:43:08;;;;;;;0.32;0.32;;;;;;;1.47;100.00;99708.31;5001914;28;20855;-79
2024/01/08 05:45:33;;;;;;;1.77;1.75;;;;;;;1.54;100.00;99737.78;5031479;28;20160;-78
2024/01/08 05:47:59;;;;;;;0.30;0.30;;;;;;;0.93;100.00;99631.16;5036505;28;20531;-77
2024/01/08 05:50:27;;;;;;;0.40;0.40;;;;;;;1.39;100.00;99718.47;5024450;28;20119;-77
2024/01/08 05:52:54;;;;;;;0.30;0.30;;;;;;;1.47;100.00;99736.75;5022674;28;20682;-77
2024/01/08 05:55:22;;;;;;;0.32;0.32;;;;;;;1.35;100.00;99750.22;5024369;28;20724;-77
2024/01/08 05:57:48;;;;;;;0.40;0.40;;;;;;;0.92;100.00;99642.31;5019973;28;20373;-77
2024/01/08 06:00:15;;;;;;;0.30;0.30;;;;;;;1.55;100.00;99757.66;5022573;28;20041;-78
2024/01/08 06:02:41;;;;;;;0.30;0.30;;;;;;;0.99;100.00;99658.00;5018995;28;20058;-78
2024/01/08 06:05:08;;;;;;;0.40;0.40;;;;;;;0.84;100.00;99661.06;5029197;28;20045;-77
2024/01/08 06:07:34;;;;;;;0.30;0.30;;;;;;;0.56;100.00;99636.22;5034748;28;20037;-77
2024/01/08 06:10:00;;;;;;;0.95;0.95;;;;;;;1.39;100.00;99752.06;5026211;28;20514;-77
2024/01/08 06:12:26;;;;;;;0.30;0.30;;;;;;;1.50;100.00;99769.56;5021783;28;20136;-78
2024/01/08 06:14:51;;;;;;;0.50;0.50;;;;;;;0.91;100.00;99658.63;5010767;28;20196;-78
2024/01/08 06:17:17;;;;;;;0.70;0.70;;;;;;;0.62;100.00;99669.06;5014352;28;20073;-78
2024/01/08 06:19:43;;;;;;;0.30;0.30;;;;;;;0.72;100.00;99676.22;5025417;28;20025;-77
2024/01/08 06:22:10;;;;;;;0.40;0.40;;;;;;;0.95;100.00;99688.88;5018735;28;20033;-79
2024/01/08 06:24:36;;;;;;;0.40;0.40;;;;;;;0.38;100.00;99625.38;5021259;28;20634;-78
2024/01/08 06:27:02;;;;;;;0.43;0.43;;;;;;;0.53;100.00;99656.75;5026124;28;20049;-77
2024/01/08 06:29:28;;;;;;;0.30;0.30;;;;;;;1.37;100.00;99799.38;5022931;28;20053;-78
2024/01/08 06:31:53;;;;;;;0.52;0.52;;;;;;;1.26;100.00;99797.41;5010954;28;20500;-78
2024/01/08 06:34:19;;;;;;;0.30;0.30;;;;;;;1.36;100.00;99797.63;5027550;28;20186;-77
2024/01/08 06:36:45;;;;;;;0.38;0.38;;;;;;;1.10;100.00;99802.06;5025329;28;20759;-76
2024/01/08 06:39:12;;;;;;;0.28;0.28;;;;;;;1.00;100.00;99785.44;5009520;28;20053;-78
2024/01/08 06:41:37;;;;;;;0.77;0.77;;;;;;;0.87;100.00;99784.22;5021802;28;20125;-78
2024/01/08 06:44:03;;;;;;;0.40;0.40;;;;;;;0.94;100.00;99801.66;5015574;28;20041;-77
2024/01/08 06:46:29;;;;;;;0.50;0.50;;;;;;;0.72;100.00;99776.03;5009115;28;20053;-77
2024/01/08 06:48:55;;;;;;;0.68;0.43;;;;;;;0.91;100.00;99823.91;5027820;28;20041;-76
2024/01/08 06:51:20;;;;;;;0.40;0.40;;;;;;;0.31;100.00;99706.03;5025025;28;20054;-75
2024/01/08 06:53:47;;;;;;;0.30;0.30;;;;;;;0.33;100.00;99709.53;5029311;28;20047;-77
2024/01/08 06:56:12;;;;;;;0.40;0.40;;;;;;;0.68;100.00;99761.28;5035008;28;20053;-77
2024/01/08 06:58:38;;;;;;;2.47;0.68;;;;;;;0.97;100.00;99813.78;5018768;28;20042;-75
2024/01/08 07:01:05;;;;;;;0.50;0.50;;;;;;;1.07;100.00;99822.66;5025921;28;20049;-75
2024/01/08 07:03:31;;;;;;;0.40;0.40;;;;;;;0.96;100.00;99830.09;5009673;28;20057;-75
2024/01/08 07:05:56;;;;;;;0.57;0.57;;;;;;;0.52;100.00;99754.81;5020708;28;20142;-76
2024/01/08 07:08:23;;;;;;;0.30;0.30;;;;;;;1.19;100.00;99872.97;5023192;28;20486;-75
2024/01/08 07:10:49;;;;;;;0.40;0.40;;;;;;;1.04;100.00;99854.44;5029773;28;20044;-75
2024/01/08 07:13:15;;;;;;;0.30;0.30;;;;;;;-0.45;100.00;99613.47;5029674;28;20064;-76
2024/01/08 07:15:43;;;;;;;0.30;0.30;;;;;;;1.19;100.00;99875.56;5026597;28;20053;-76
2024/01/08 07:18:09;;;;;;;3.75;3.50;;;;;;;1.07;100.00;99831.28;5022044;28;20114;-75
2024/01/08 07:20:39;;;;;;;2.47;2.15;;;;;;;0.44;100.00;99771.75;5028089;28;20157;-76
2024/01/08 07:23:06;;;;;;;1.00;1.00;;;;;;;1.07;100.00;99871.75;5011716;28;20041;-76
2024/01/08 07:25:35;;;;;;;0.30;0.30;;;;;;;0.98;100.00;99867.19;5041201;28;20555;-76
2024/01/08 07:28:00;;;;;;;0.80;0.80;;;;;;;1.11;100.00;99896.84;5025738;28;20041;-76
2024/01/08 07:30:26;;;;;;;0.30;0.30;;;;;;;0.83;100.00;99828.88;5024615;28;20566;-76
2024/01/08 07:32:51;;;;;;;0.30;0.30;;;;;;;0.82;100.00;99814.22;5027964;28;20045;-76
2024/01/08 07:35:17;;;;;;;0.30;0.30;;;;;;;0.35;100.00;99795.56;5029204;28;20049;-76
2024/01/08 07:37:43;;;;;;;1.70;1.63;;;;;;;0.32;100.00;99811.84;5031214;28;20021;-74
2024/01/08 07:40:09;;;;;;;0.40;0.40;;;;;;;0.48;100.00;99794.25;5026475;28;20172;-75
2024/01/08 07:42:34;;;;;;;0.50;0.50;;;;;;;1.11;100.00;99892.56;5031099;28;20054;-75
2024/01/08 07:45:00;;;;;;;0.40;0.40;;;;;;;1.37;100.00;99929.50;5038171;28;20045;-76
2024/01/08 07:47:26;;;;;;;0.40;0.40;;;;;;;0.93;100.00;99840.34;5031050;28;20054;-75
2024/01/08 07:49:51;;;;;;;0.40;0.40;;;;;;;1.02;100.00;99903.47;5036613;28;20552;-76
2024/01/08 07:52:17;;;;;;;0.50;0.50;;;;;;;0.64;100.00;99809.38;5026871;28;20033;-76
2024/01/08 07:54:43;;;;;;;15.38;14.07;;;;;;;0.90;100.00;99897.94;5027939;28;20052;-75
2024/01/08 07:57:08;;;;;;;0.40;0.40;;;;;;;1.21;100.00;99922.13;5028135;28;20049;-77
2024/01/08 07:59:35;;;;;;;0.30;0.30;;;;;;;0.56;100.00;99839.22;5029288;28;20045;-76
2024/01/08 08:02:01;;;;;;;0.45;0.45;;;;;;;0.65;100.00;99842.09;5023271;28;20033;-76
2024/01/08 08:04:27;;;;;;;0.30;0.30;;;;;;;1.19;100.00;99962.53;5026636;28;20079;-75
2024/01/08 08:06:53;;;;;;;0.95;0.95;;;;;;;1.40;100.00;99951.97;5023359;28;20618;-76
2024/01/08 08:09:18;;;;;;;0.30;0.30;;;;;;;1.32;100.00;99946.56;5023275;28;20062;-76
2024/01/08 08:11:45;;;;;;;0.90;0.90;;;;;;;0.81;100.00;99857.22;5024738;28;20492;-75
2024/01/08 08:14:10;;;;;;;0.30;0.30;;;;;;;1.17;100.00;99938.34;5025869;28;20041;-76
2024/01/08 08:16:36;;;;;;;0.75;0.75;;;;;;;1.25;100.00;99953.25;5024390;28;20021;-76
2024/01/08 08:19:03;;;;;;;0.47;0.47;;;;;;;1.48;100.00;99966.88;5031911;28;20500;-76
2024/01/08 08:21:30;;;;;;;0.70;0.70;;;;;;;1.07;100.00;99879.50;5032645;28;20090;-75
2024/01/08 08:23:57;;;;;;;0.30;0.30;;;;;;;1.46;100.00;99988.34;5025654;28;20034;-76
2024/01/08 08:26:24;;;;;;;9.32;7.22;;;;;;;0.96;100.00;99880.06;5029627;28;20061;-76
2024/01/08 08:28:49;;;;;;;0.40;0.40;;;;;;;0.60;100.00;99906.50;5023008;28;20080;-76
2024/01/08 08:31:14;;;;;;;2.80;2.67;;;;;;;0.27;100.00;99903.69;5025040;28;20108;-77
2024/01/08 08:33:42;;;;;;;2.25;2.15;;;;;;;0.56;100.00;99853.03;5026643;28;20500;-76
2024/01/08 08:36:08;;;;;;;0.43;0.43;;;;;;;1.37;100.00;100009.63;5036677;28;20045;-76
2024/01/08 08:38:35;;;;;;;0.30;0.30;;;;;;;1.21;100.00;99995.34;5019465;28;20053;-76
2024/01/08 08:41:00;;;;;;;0.38;0.38;;;;;;;1.32;100.00;100005.16;5025660;28;20048;-75
2024/01/08 08:43:26;;;;;;;0.30;0.30;;;;;;;1.41;100.00;99998.53;5026363;28;20033;-75
2024/01/08 08:45:51;;;;;;;0.50;0.50;;;;;;;1.58;100.00;100011.09;5026148;28;20494;-76
2024/01/08 08:48:18;;;;;;;0.30;0.30;;;;;;;0.86;100.00;99944.28;5024218;28;20434;-76
2024/01/08 08:50:44;;;;;;;1.20;1.20;;;;;;;1.30;100.00;99965.44;5026357;28;20033;-75
2024/01/08 08:53:09;;;;;;;0.35;0.35;;;;;;;1.74;100.00;100043.47;5021824;28;20072;-74
2024/01/08 08:55:35;;;;;;;4.75;4.30;;;;;;;1.10;100.00;99933.84;5025167;28;20030;-76
2024/01/08 08:58:00;;;;;;;2.53;1.48;;;;;;;1.17;100.00;99946.09;5026569;28;20045;-76
2024/01/08 09:00:26;;;;;;;1.23;1.17;;;;;;;1.37;100.00;99962.22;5025835;28;20445;-76
2024/01/08 09:02:52;;;;;;;2.15;2.05;;;;;;;0.76;100.00;99931.09;5027587;28;20073;-76
2024/01/08 09:05:18;;;;;;;1.67;1.63;;;;;;;1.21;100.00;99935.03;5026658;28;20045;-75
2024/01/08 09:07:44;;;;;;;0.40;0.40;;;;;;;0.76;100.00;99843.31;5026354;28;20098;-75
2024/01/08 09:10:09;;;;;;;0.40;0.40;;;;;;;1.45;100.00;99935.78;5028384;28;20140;-76
2024/01/08 09:12:35;;;;;;;0.30;0.30;;;;;;;0.82;100.00;99940.75;5029974;28;20036;-76
2024/01/08 09:15:00;;;;;;;0.30;0.30;;;;;;;1.45;100.00;100020.19;5027585;28;20045;-75
2024/01/08 09:17:27;;;;;;;0.50;0.50;;;;;;;1.33;100.00;100058.59;5029233;28;20041;-76
2024/01/08 09:19:53;;;;;;;0.47;0.47;;;;;;;1.10;100.00;99970.91;5014720;28;20075;-76
2024/01/08 09:22:18;;;;;;;0.30;0.30;;;;;;;1.42;100.00;100039.06;5029174;28;20574;-76
2024/01/08 09:24:44;;;;;;;0.40;0.40;;;;;;;1.07;100.00;99938.91;5023755;28;20049;-76
2024/01/08 09:27:09;;;;;;;1.25;1.25;;;;;;;1.71;100.00;100056.28;5028804;28;20056;-75
2024/01/08 09:29:35;;;;;;;0.38;0.38;;;;;;;0.99;100.00;100063.56;5027273;28;20063;-76
2024/01/08 09:32:01;;;;;;;0.57;0.50;;;;;;;1.61;100.00;100062.88;5015875;28;20037;-75
2024/01/08 09:34:26;;;;;;;0.90;0.90;;;;;;;1.20;100.00;99967.75;5026248;28;20045;-75
2024/01/08 09:36:52;;;;;;;0.40;0.40;;;;;;;1.55;100.00;100050.66;5036115;28;20049;-75
2024/01/08 09:39:17;;;;;;;0.40;0.40;;;;;;;1.30;100.00;100061.94;5023067;28;20081;-76
2024/01/08 09:41:47;;;;;;;0.85;0.85;;;;;;;1.53;100.00;100065.25;5037416;28;20041;-75
2024/01/08 09:44:14;;;;;;;0.43;0.43;;;;;;;1.25;100.00;100017.00;5029502;28;20529;-76
2024/01/08 09:46:47;;;;;;;0.40;0.40;;;;;;;1.53;100.00;100083.34;5011120;28;20079;-76
2024/01/08 09:49:14;;;;;;;0.50;0.50;;;;;;;1.12;100.00;99992.47;5027904;28;20104;-75
2024/01/08 09:51:41;;;;;;;0.40;0.40;;;;;;;1.66;100.00;100069.97;5022264;28;20640;-75
2024/01/08 09:54:08;;;;;;;0.30;0.30;;;;;;;1.85;100.00;100094.69;5022745;28;20052;-75
2024/01/08 09:56:34;;;;;;;0.30;0.30;;;;;;;1.85;100.00;100089.50;5024294;28;20045;-76
2024/01/08 09:58:59;;;;;;;0.40;0.40;;;;;;;1.75;100.00;100105.56;5002693;28;20037;-75
2024/01/08 10:01:26;;;;;;;0.63;0.63;;;;;;;0.84;100.00;99972.66;5021632;28;20425;-76
2024/01/08 10:03:52;;;;;;;0.30;0.30;;;;;;;1.75;100.00;100104.69;5031065;28;20417;-75
2024/01/08 10:06:18;;;;;;;2.05;1.95;;;;;;;1.17;100.00;100000.38;5026979;28;20161;-76
2024/01/08 10:08:43;;;;;;;0.40;0.40;;;;;;;1.47;100.00;100075.41;5028740;28;20117;-76
2024/01/08 10:11:10;;;;;;;0.47;0.47;;;;;;;1.78;100.00;100113.44;5036887;28;20102;-77
2024/01/08 10:13:36;;;;;;;0.30;0.30;;;;;;;1.22;100.00;100015.19;5027022;28;20725;-76
2024/01/08 10:16:01;;;;;;;0.30;0.30;;;;;;;1.55;100.00;100102.38;5038019;28;20049;-75
2024/01/08 10:18:28;;;;;;;0.50;0.50;;;;;;;1.67;100.00;100079.47;5015986;28;20049;-76
2024/01/08 10:21:11;;;;;;;2.88;1.80;;;;;;;1.04;100.00;100006.88;5030374;28;20053;-75
2024/01/08 10:23:38;;;;;;;0.30;0.30;;;;;;;1.55;100.00;100109.25;5028210;28;20037;-75
2024/01/08 10:26:04;;;;;;;0.30;0.30;;;;;;;1.35;100.00;100124.13;5033292;28;20060;-76
2024/01/08 10:28:37;;;;;;;0.40;0.40;;;;;;;0.82;100.00;100111.19;5025986;28;20069;-76
2024/01/08 10:31:08;;;;;;;0.35;0.35;;;;;;;0.91;100.00;100026.25;5039803;28;20060;-75
2024/01/08 10:33:34;;;;;;;0.35;0.35;;;;;;;0.92;100.00;100094.31;5033446;28;20390;-76
2024/01/08 10:36:05;;;;;;;19.17;14.77;;;;;;;1.02;100.00;100048.16;5035963;28;20138;-76
2024/01/08 10:38:32;;;;;;;5.60;5.30;;;;;;;1.51;100.00;100120.34;5031573;28;20041;-76
2024/01/08 10:41:00;;;;;;;0.30;0.30;;;;;;;1.16;100.00;100022.75;5034171;28;20029;-76
2024/01/08 10:43:29;;;;;;;0.43;0.43;;;;;;;1.82;100.00;100119.56;5029730;28;20033;-75
2024/01/08 10:46:00;;;;;;;0.40;0.40;;;;;;;1.54;100.00;100136.81;5021504;28;20040;-76
2024/01/08 10:48:40;;;;;;;1.17;1.17;;;;;;;1.20;100.00;100120.22;5015611;28;20057;-76
2024/01/08 10:51:08;;;;;;;0.50;0.50;;;;;;;1.31;100.00;100122.25;5029132;28;20060;-75
2024/01/08 10:53:53;;;;;;;0.30;0.30;;;;;;;1.74;100.00;100157.25;5016500;28;20690;-76
2024/01/08 10:56:22;;;;;;;0.30;0.30;;;;;;;1.55;100.00;100142.88;5022740;28;20193;-76
2024/01/08 10:58:55;;;;;;;0.43;0.43;;;;;;;1.07;100.00;100048.28;5025170;28;20121;-76
2024/01/08 11:01:21;;;;;;;0.30;0.30;;;;;;;1.24;100.00;100101.41;5031241;28;20044;-75
2024/01/08 11:03:47;;;;;;;0.45;0.45;;;;;;;0.84;100.00;100051.03;5026139;28;20045;-76
2024/01/08 11:06:13;;;;;;;0.40;0.40;;;;;;;1.00;100.00;100140.22;5026047;28;20045;-75
2024/01/08 11:08:40;;;;;;;0.43;0.43;;;;;;;1.34;100.00;100158.56;5026274;28;20087;-75
2024/01/08 11:11:08;;;;;;;0.30;0.30;;;;;;;1.24;100.00;100096.25;5038672;28;20481;-77
2024/01/08 11:13:35;;;;;;;0.50;0.50;;;;;;;1.36;100.00;100169.81;5037969;28;20029;-77
2024/01/08 11:16:06;;;;;;;1.48;1.42;;;;;;;0.68;100.00;100090.06;5032737;28;20045;-78
2024/01/08 11:18:32;;;;;;;0.30;0.30;;;;;;;1.35;100.00;100174.09;5031230;28;20053;-76
2024/01/08 11:20:59;;;;;;;0.30;0.30;;;;;;;0.46;100.00;100077.22;5029627;28;20137;-74
2024/01/08 11:23:40;;;;;;;0.77;0.77;;;;;;;1.28;100.00;100164.41;5031145;28;20093;-76
2024/01/08 11:26:19;;;;;;;0.40;0.40;;;;;;;1.41;100.00;100176.91;5035844;28;20072;-75
2024/01/08 11:29:06;;;;;;;0.40;0.40;;;;;;;0.20;100.00;100083.22;5035503;28;20083;-76